createdAt,value
2023-05-12T00:00:49.086Z,20.20
2023-05-12T00:03:24.532Z,20.10
2023-05-12T00:06:03.815Z,20.30
2023-05-12T00:08:44.313Z,20.30
2023-05-12T00:11:23.383Z,20.20
2023-05-12T00:14:02.710Z,20.10
2023-05-12T00:16:48.107Z,20.10
2023-05-12T00:19:29.983Z,20.10
2023-05-12T00:22:07.824Z,20.30
2023-05-12T00:24:42.778Z,20.30
2023-05-12T00:27:21.844Z,20.40
2023-05-12T00:30:01.552Z,20.30
2023-05-12T00:32:41.202Z,20.50
2023-05-12T00:35:25.257Z,20.50
2023-05-12T00:38:13.381Z,20.40
2023-05-12T00:40:52.045Z,20.50
2023-05-12T00:43:29.464Z,20.60
2023-05-12T00:46:04.736Z,20.60
2023-05-12T00:48:44.338Z,20.60
2023-05-12T00:51:22.893Z,20.70
2023-05-12T00:54:06.748Z,20.80
2023-05-12T00:56:58.716Z,20.20
2023-05-12T00:59:40.639Z,20.50
2023-05-12T01:02:25.035Z,20.60
2023-05-12T01:05:05.159Z,20.70
2023-05-12T01:07:43.698Z,20.60
2023-05-12T01:10:41.844Z,20.60
2023-05-12T01:13:19.080Z,20.60
2023-05-12T01:16:02.470Z,20.80
2023-05-12T01:18:42.918Z,20.80
2023-05-12T01:21:22.924Z,20.60
2023-05-12T01:24:09.415Z,20.80
2023-05-12T01:27:05.380Z,20.60
2023-05-12T01:29:48.945Z,20.90
2023-05-12T01:32:27.585Z,21.00
2023-05-12T01:35:06.079Z,21.20
2023-05-12T01:37:51.629Z,21.40
2023-05-12T01:40:30.347Z,21.30
2023-05-12T01:43:11.492Z,21.00
2023-05-12T01:45:46.966Z,21.10
2023-05-12T01:48:28.287Z,21.20
2023-05-12T01:51:18.069Z,21.40
2023-05-12T01:53:53.851Z,21.30
2023-05-12T01:56:31.914Z,21.40
2023-05-12T01:59:14.133Z,21.50
2023-05-12T02:01:57.319Z,21.60
2023-05-12T02:04:38.987Z,21.60
2023-05-12T02:07:17.219Z,21.40
2023-05-12T02:09:53.970Z,21.60
2023-05-12T02:12:35.672Z,21.60
2023-05-12T02:15:17.186Z,21.80
2023-05-12T02:18:03.716Z,21.80
2023-05-12T02:20:45.834Z,22.10
2023-05-12T02:23:30.477Z,22.10
2023-05-12T02:26:17.685Z,22.30
2023-05-12T02:28:58.742Z,22.20
2023-05-12T02:31:38.698Z,22.50
2023-05-12T02:34:26.582Z,22.50
2023-05-12T02:37:07.249Z,22.60
2023-05-12T02:39:45.980Z,22.50
2023-05-12T02:42:25.054Z,22.50
2023-05-12T02:45:16.217Z,22.70
2023-05-12T02:47:59.682Z,22.90
2023-05-12T02:50:37.289Z,23.10
2023-05-12T02:53:19.810Z,23.10
2023-05-12T02:56:01.622Z,23.40
2023-05-12T02:58:51.863Z,23.80
2023-05-12T03:01:28.575Z,24.10
2023-05-12T03:04:17.274Z,24.30
2023-05-12T03:06:55.738Z,24.00
2023-05-12T03:09:31.424Z,24.40
2023-05-12T03:12:14.928Z,24.60
2023-05-12T03:14:59.359Z,24.90
2023-05-12T03:17:44.946Z,25.40
2023-05-12T03:20:28.659Z,26.10
2023-05-12T03:23:10.279Z,26.50
2023-05-12T03:26:05.873Z,26.70
2023-05-12T03:28:44.597Z,27.00
2023-05-12T03:31:24.779Z,27.50
2023-05-12T03:34:08.310Z,27.50
2023-05-12T03:36:47.194Z,28.10
2023-05-12T03:39:26.755Z,27.80
2023-05-12T03:42:05.768Z,27.80
2023-05-12T03:44:46.250Z,28.10
2023-05-12T03:47:26.492Z,28.20
2023-05-12T03:50:16.665Z,27.90
2023-05-12T03:53:07.958Z,27.70
2023-05-12T03:55:50.093Z,27.60
2023-05-12T03:58:24.299Z,27.80
2023-05-12T04:01:10.721Z,27.90
2023-05-12T04:03:45.004Z,27.40
2023-05-12T04:06:24.073Z,27.50
2023-05-12T04:09:04.426Z,27.40
2023-05-12T04:11:42.354Z,27.30
2023-05-12T04:14:31.787Z,27.10
2023-05-12T04:17:17.641Z,27.20
2023-05-12T04:19:59.280Z,27.20
2023-05-12T04:22:37.811Z,27.40
2023-05-12T04:25:34.795Z,27.50
2023-05-12T04:28:13.266Z,27.50
2023-05-12T04:30:53.332Z,27.40
2023-05-12T04:33:51.164Z,27.40
2023-05-12T04:36:36.896Z,27.50
2023-05-12T04:39:21.163Z,27.40
2023-05-12T04:42:08.450Z,27.20
2023-05-12T04:44:56.806Z,27.10
2023-05-12T04:47:42.885Z,27.20
2023-05-12T04:50:24.986Z,27.20
2023-05-12T04:53:07.269Z,27.20
2023-05-12T04:55:55.517Z,26.70
2023-05-12T04:58:38.954Z,26.80
2023-05-12T05:01:19.804Z,26.80
2023-05-12T05:04:12.194Z,26.70
2023-05-12T05:06:52.817Z,26.70
2023-05-12T05:09:36.710Z,26.60
2023-05-12T05:12:23.055Z,26.70
2023-05-12T05:15:09.994Z,26.80
2023-05-12T05:18:01.485Z,26.80
2023-05-12T05:20:45.178Z,26.60
2023-05-12T05:23:50.688Z,26.60
2023-05-12T05:26:37.717Z,26.70
2023-05-12T05:29:25.550Z,26.70
2023-05-12T05:32:18.530Z,26.50
2023-05-12T05:34:53.844Z,26.50
2023-05-12T05:37:49.652Z,26.40
2023-05-12T05:40:33.809Z,26.40
2023-05-12T05:43:15.979Z,26.40
2023-05-12T05:46:02.499Z,26.40
2023-05-12T05:48:50.008Z,26.30
2023-05-12T05:51:35.575Z,26.30
2023-05-12T05:54:20.236Z,26.50
2023-05-12T05:57:04.070Z,26.50
2023-05-12T05:59:54.666Z,26.50
2023-05-12T06:02:36.094Z,26.60
2023-05-12T06:05:26.836Z,26.50
2023-05-12T06:08:14.441Z,26.50
2023-05-12T06:11:01.541Z,26.50
2023-05-12T06:13:38.610Z,26.40
2023-05-12T06:16:23.531Z,26.50
2023-05-12T06:19:08.945Z,26.50
2023-05-12T06:21:54.077Z,26.50
2023-05-12T06:24:46.140Z,26.60
2023-05-12T06:27:25.210Z,26.70
2023-05-12T06:30:06.800Z,26.60
2023-05-12T06:32:43.519Z,26.50
2023-05-12T06:35:23.449Z,26.40
2023-05-12T06:38:08.497Z,26.40
2023-05-12T06:40:59.042Z,26.40
2023-05-12T06:43:41.824Z,26.50
2023-05-12T06:46:40.519Z,26.70
2023-05-12T06:49:17.793Z,26.80
2023-05-12T06:52:05.103Z,26.80
2023-05-12T06:54:51.816Z,26.80
2023-05-12T06:57:35.934Z,26.70
2023-05-12T07:00:14.192Z,26.60
2023-05-12T07:03:09.337Z,26.60
2023-05-12T07:05:50.502Z,26.70
2023-05-12T07:08:26.021Z,26.60
2023-05-12T07:14:20.432Z,26.70
2023-05-12T07:17:04.370Z,26.80
2023-05-12T07:19:56.429Z,26.80
2023-05-12T07:22:39.736Z,27.00
2023-05-12T07:25:34.081Z,26.90
2023-05-12T07:28:35.034Z,26.60
2023-05-12T07:31:17.423Z,26.50
2023-05-12T07:33:59.222Z,26.60
2023-05-12T07:36:39.204Z,26.80
2023-05-12T07:39:21.151Z,26.80
2023-05-12T07:42:07.804Z,26.80
2023-05-12T07:44:58.951Z,27.00
2023-05-12T07:48:08.831Z,26.90
2023-05-12T07:50:51.682Z,26.80
2023-05-12T07:53:36.821Z,26.80
2023-05-12T07:56:19.319Z,26.90
2023-05-12T07:59:10.653Z,26.80
2023-05-12T08:01:59.862Z,26.80
2023-05-12T08:04:45.383Z,26.80
2023-05-12T08:07:25.587Z,27.10
2023-05-12T08:10:07.871Z,27.20
2023-05-12T08:12:48.328Z,27.30
2023-05-12T08:15:28.313Z,27.20
2023-05-12T08:18:13.917Z,27.10
2023-05-12T08:20:58.246Z,27.10
2023-05-12T08:23:48.356Z,27.10
2023-05-12T08:26:23.436Z,27.10
2023-05-12T08:29:12.101Z,27.30
2023-05-12T08:32:02.154Z,27.40
2023-05-12T08:34:47.613Z,27.40
2023-05-12T08:37:26.552Z,27.30
2023-05-12T08:40:23.482Z,27.30
2023-05-12T08:43:11.754Z,27.10
2023-05-12T08:46:00.265Z,27.00
2023-05-12T08:48:38.582Z,27.10
2023-05-12T08:51:23.026Z,27.10
2023-05-12T08:54:00.844Z,27.10
2023-05-12T08:57:12.839Z,27.20
2023-05-12T09:00:01.805Z,27.30
2023-05-12T09:02:52.009Z,27.50
2023-05-12T09:05:46.710Z,27.50
2023-05-12T09:08:40.300Z,27.60
2023-05-12T09:11:32.696Z,27.60
2023-05-12T09:14:08.832Z,27.70
2023-05-12T09:16:51.236Z,27.80
2023-05-12T09:19:29.280Z,27.70
2023-05-12T09:22:07.808Z,27.70
2023-05-12T09:24:55.690Z,27.60
2023-05-12T09:27:35.543Z,27.60
2023-05-12T09:30:21.584Z,27.50
2023-05-12T09:33:24.870Z,27.60
2023-05-12T09:36:09.140Z,27.80
2023-05-12T09:38:52.774Z,27.70
2023-05-12T09:41:37.833Z,27.70
2023-05-12T09:44:31.066Z,27.80
2023-05-12T09:47:18.446Z,27.80
2023-05-12T09:50:14.000Z,27.90
2023-05-12T09:52:56.966Z,27.70
2023-05-12T09:55:34.114Z,27.50
2023-05-12T09:58:21.308Z,27.60
2023-05-12T10:03:54.392Z,27.60
2023-05-12T10:06:42.176Z,27.50
2023-05-12T10:09:23.122Z,27.50
2023-05-12T10:12:06.708Z,27.60
2023-05-12T10:15:08.648Z,27.70
2023-05-12T10:17:53.031Z,27.60
2023-05-12T10:20:37.930Z,27.60
2023-05-12T10:23:23.642Z,27.60
2023-05-12T10:26:09.265Z,27.50
2023-05-12T10:28:47.412Z,27.30
2023-05-12T10:31:26.107Z,27.20
2023-05-12T10:34:14.019Z,27.20
2023-05-12T10:37:03.187Z,27.10
2023-05-12T10:39:44.727Z,27.10
2023-05-12T10:42:41.364Z,27.00
2023-05-12T10:45:39.129Z,26.80
2023-05-12T10:48:27.960Z,26.80
2023-05-12T10:51:19.532Z,26.60
2023-05-12T10:53:59.521Z,26.50
2023-05-12T10:56:54.687Z,26.50
2023-05-12T10:59:41.026Z,26.50
2023-05-12T11:02:31.834Z,26.40
2023-05-12T11:05:24.257Z,26.40
2023-05-12T11:08:00.670Z,26.20
2023-05-12T11:10:53.430Z,26.20
2023-05-12T11:13:47.547Z,26.20
2023-05-12T11:16:26.670Z,26.10
2023-05-12T11:19:19.589Z,26.00
2023-05-12T11:22:10.295Z,25.90
2023-05-12T11:24:50.560Z,25.80
2023-05-12T11:27:54.155Z,25.80
2023-05-12T11:30:48.085Z,25.80
2023-05-12T11:33:32.076Z,25.70
2023-05-12T11:39:23.229Z,25.70
2023-05-12T11:42:12.901Z,25.60
2023-05-12T11:44:57.801Z,25.50
2023-05-12T11:47:42.269Z,25.50
2023-05-12T11:50:31.146Z,25.40
2023-05-12T11:53:17.076Z,25.50
2023-05-12T11:56:15.640Z,25.40
2023-05-12T11:59:10.925Z,25.40
2023-05-12T12:02:13.654Z,25.40
2023-05-12T12:04:52.988Z,25.40
2023-05-12T12:07:51.866Z,25.30
2023-05-12T12:10:39.873Z,25.30
2023-05-12T12:13:35.838Z,25.30
2023-05-12T12:16:19.829Z,25.30
2023-05-12T12:19:06.473Z,25.20
2023-05-12T12:22:06.569Z,25.10
2023-05-12T12:25:06.638Z,25.10
2023-05-12T12:27:48.231Z,25.10
2023-05-12T12:30:43.029Z,25.10
2023-05-12T12:33:33.926Z,25.10
2023-05-12T12:36:31.234Z,25.10
2023-05-12T12:39:20.884Z,25.00
2023-05-12T12:42:20.864Z,25.00
2023-05-12T12:45:04.786Z,25.00
2023-05-12T12:48:04.816Z,25.00
2023-05-12T12:50:51.592Z,24.90
2023-05-12T12:53:40.321Z,24.90
2023-05-12T12:56:27.562Z,24.90
2023-05-12T12:59:13.564Z,24.90
2023-05-12T13:01:52.106Z,24.90
2023-05-12T13:04:44.182Z,24.80
2023-05-12T13:07:29.638Z,24.80
2023-05-12T13:10:11.726Z,24.80
2023-05-12T13:13:02.728Z,24.80
2023-05-12T13:15:57.915Z,24.70
2023-05-12T13:18:35.371Z,24.70
2023-05-12T13:21:28.896Z,24.70
2023-05-12T13:24:20.805Z,24.70
2023-05-12T13:27:02.528Z,24.70
2023-05-12T13:29:48.440Z,24.60
2023-05-12T13:32:40.737Z,24.70
2023-05-12T13:35:19.504Z,24.60
2023-05-12T13:38:11.994Z,24.60
2023-05-12T13:40:57.672Z,24.60
2023-05-12T13:43:40.064Z,24.60
2023-05-12T13:46:19.574Z,24.50
2023-05-12T13:49:19.850Z,24.50
2023-05-12T13:52:09.968Z,24.50
2023-05-12T13:55:01.753Z,24.50
2023-05-12T13:57:42.824Z,24.50
2023-05-12T14:00:32.265Z,24.50
2023-05-12T14:03:11.873Z,24.50
2023-05-12T14:06:08.395Z,24.40
2023-05-12T14:08:55.977Z,24.50
2023-05-12T14:11:56.771Z,24.40
2023-05-12T14:14:41.170Z,24.40
2023-05-12T14:17:17.400Z,24.40
2023-05-12T14:20:04.000Z,24.40
2023-05-12T14:22:51.596Z,24.30
2023-05-12T14:25:32.916Z,24.30
2023-05-12T14:28:29.927Z,24.40
2023-05-12T14:34:35.980Z,24.30
2023-05-12T14:37:20.832Z,24.30
2023-05-12T14:40:09.659Z,24.30
2023-05-12T14:42:50.611Z,24.20
2023-05-12T14:45:40.628Z,24.20
2023-05-12T14:48:33.284Z,24.20
2023-05-12T14:51:36.176Z,24.10
2023-05-12T14:54:25.128Z,24.10
2023-05-12T14:57:10.212Z,24.10
2023-05-12T15:00:04.467Z,24.10
2023-05-12T15:02:45.267Z,24.00
2023-05-12T15:05:37.306Z,24.00
2023-05-12T15:08:31.851Z,24.00
2023-05-12T15:11:17.384Z,24.00
2023-05-12T15:13:57.701Z,24.00
2023-05-12T15:16:43.832Z,24.00
2023-05-12T15:19:41.069Z,24.00
2023-05-12T15:22:24.565Z,24.00
2023-05-12T15:25:23.802Z,24.00
2023-05-12T15:28:16.810Z,24.00
2023-05-12T15:31:04.624Z,24.00
2023-05-12T15:33:42.631Z,24.00
2023-05-12T15:36:29.739Z,23.90
2023-05-12T15:39:11.241Z,24.00
2023-05-12T15:42:14.695Z,23.90
2023-05-12T15:45:09.560Z,23.90
2023-05-12T15:48:02.517Z,23.90
2023-05-12T15:50:39.619Z,23.90
2023-05-12T15:53:22.944Z,23.90
2023-05-12T15:56:41.196Z,23.80
2023-05-12T15:59:31.132Z,23.80
2023-05-12T16:02:08.883Z,23.70
2023-05-12T16:04:51.034Z,23.80
2023-05-12T16:07:38.641Z,23.70
2023-05-12T16:10:17.248Z,23.70
2023-05-12T16:13:10.837Z,23.70
2023-05-12T16:16:03.411Z,23.60
2023-05-12T16:18:47.400Z,23.60
2023-05-12T16:21:33.434Z,23.60
2023-05-12T16:24:17.266Z,23.50
2023-05-12T16:27:02.743Z,23.50
2023-05-12T16:29:47.489Z,23.50
2023-05-12T16:32:39.364Z,23.50
2023-05-12T16:35:46.514Z,23.40
2023-05-12T16:38:43.484Z,23.40
2023-05-12T16:41:30.879Z,23.40
2023-05-12T16:44:12.777Z,23.40
2023-05-12T16:46:58.096Z,23.40
2023-05-12T16:49:42.421Z,23.30
2023-05-12T16:52:23.765Z,23.30
2023-05-12T16:55:11.559Z,23.30
2023-05-12T16:57:55.714Z,23.30
2023-05-12T17:03:29.128Z,23.30
2023-05-12T17:06:11.909Z,23.30
2023-05-12T17:08:50.279Z,23.30
2023-05-12T17:11:34.762Z,23.30
2023-05-12T17:14:19.668Z,23.30
2023-05-12T17:17:17.578Z,23.20
2023-05-12T17:19:58.040Z,23.20
2023-05-12T17:22:55.100Z,23.10
2023-05-12T17:25:34.360Z,23.00
2023-05-12T17:28:26.040Z,23.10
2023-05-12T17:31:11.423Z,23.10
2023-05-12T17:33:53.781Z,23.00
2023-05-12T17:36:41.623Z,23.00
2023-05-12T17:39:37.247Z,23.00
2023-05-12T17:42:23.816Z,23.00
2023-05-12T17:45:04.745Z,23.00
2023-05-12T17:47:56.061Z,22.90
2023-05-12T17:50:41.849Z,22.90
2023-05-12T17:53:26.789Z,22.90
2023-05-12T17:56:15.842Z,22.80
2023-05-12T17:58:54.307Z,22.80
2023-05-12T18:01:34.660Z,22.80
2023-05-12T18:04:15.856Z,22.70
2023-05-12T18:06:54.706Z,22.70
2023-05-12T18:09:40.391Z,22.70
2023-05-12T18:12:31.749Z,22.60
2023-05-12T18:15:12.389Z,22.60
2023-05-12T18:17:53.605Z,22.60
2023-05-12T18:20:33.307Z,22.60
2023-05-12T18:23:13.478Z,22.50
2023-05-12T18:25:54.359Z,22.40
2023-05-12T18:28:37.025Z,22.40
2023-05-12T18:31:19.874Z,22.40
2023-05-12T18:33:59.255Z,22.30
2023-05-12T18:36:37.805Z,22.40
2023-05-12T18:39:16.695Z,22.30
2023-05-12T18:41:52.579Z,22.30
2023-05-12T18:44:33.386Z,22.30
2023-05-12T18:47:09.917Z,22.20
2023-05-12T18:49:49.163Z,22.10
2023-05-12T18:52:23.528Z,22.20
2023-05-12T18:55:01.759Z,22.30
2023-05-12T18:57:40.080Z,22.20
2023-05-12T19:00:19.976Z,22.20
2023-05-12T19:03:04.325Z,22.10
2023-05-12T19:05:43.282Z,22.10
2023-05-12T19:08:19.966Z,22.10
2023-05-12T19:10:55.415Z,22.00
2023-05-12T19:13:32.805Z,22.00
2023-05-12T19:16:14.110Z,21.90
2023-05-12T19:18:50.623Z,21.80
2023-05-12T19:21:26.542Z,21.70
2023-05-12T19:24:04.353Z,21.70
2023-05-12T19:26:39.859Z,21.70
2023-05-12T19:29:15.731Z,21.70
2023-05-12T19:31:53.405Z,21.70
2023-05-12T19:34:36.208Z,21.70
2023-05-12T19:37:11.881Z,21.60
2023-05-12T19:39:49.534Z,21.60
2023-05-12T19:42:24.702Z,21.50
2023-05-12T19:45:00.736Z,21.50
2023-05-12T19:47:36.813Z,21.50
2023-05-12T19:50:14.292Z,21.40
2023-05-12T19:52:58.612Z,21.40
2023-05-12T19:55:32.995Z,21.30
2023-05-12T19:58:14.220Z,21.30
2023-05-12T20:00:55.127Z,21.20
2023-05-12T20:03:32.470Z,21.10
2023-05-12T20:06:08.555Z,21.20
2023-05-12T20:08:45.335Z,21.30
2023-05-12T20:11:19.807Z,21.30
2023-05-12T20:13:59.494Z,21.30
2023-05-12T20:16:37.315Z,21.20
2023-05-12T20:19:24.455Z,21.20
2023-05-12T20:22:01.696Z,21.20
2023-05-12T20:24:41.212Z,21.30
2023-05-12T20:27:16.398Z,21.40
2023-05-12T20:29:51.314Z,21.50
2023-05-12T20:32:27.473Z,21.50
2023-05-12T20:35:13.060Z,21.60
2023-05-12T20:37:50.853Z,21.60
2023-05-12T20:40:29.689Z,21.50
2023-05-12T20:43:04.410Z,21.60
2023-05-12T20:45:42.864Z,21.50
2023-05-12T20:48:25.619Z,21.60
2023-05-12T20:51:03.276Z,21.60
2023-05-12T20:53:39.500Z,21.50
2023-05-12T20:56:15.813Z,21.50
2023-05-12T20:58:53.608Z,21.50
2023-05-12T21:01:33.078Z,21.50
2023-05-12T21:04:08.250Z,21.30
2023-05-12T21:06:55.543Z,21.40
2023-05-12T21:09:48.912Z,21.40
2023-05-12T21:12:25.666Z,21.40
2023-05-12T21:15:04.390Z,21.40
2023-05-12T21:17:44.784Z,21.40
2023-05-12T21:20:23.289Z,21.40
2023-05-12T21:23:02.971Z,21.30
2023-05-12T21:25:40.026Z,21.40
2023-05-12T21:28:54.325Z,21.40
2023-05-12T21:31:53.334Z,21.40
2023-05-12T21:35:21.341Z,21.40
2023-05-12T21:38:35.017Z,21.30
2023-05-12T21:41:23.004Z,21.10
2023-05-12T21:44:17.080Z,21.00
2023-05-12T21:47:40.640Z,21.10
2023-05-12T21:50:47.617Z,21.20
2023-05-12T21:53:28.453Z,21.00
2023-05-12T21:56:04.233Z,20.90
2023-05-12T21:59:28.417Z,20.80
2023-05-12T22:02:43.826Z,20.70
2023-05-12T22:05:40.493Z,20.70
2023-05-12T22:08:26.796Z,20.70
2023-05-12T22:11:23.053Z,20.70
2023-05-12T22:14:14.142Z,20.90
2023-05-12T22:17:13.516Z,21.00
2023-05-12T22:20:03.778Z,21.10
2023-05-12T22:23:11.311Z,21.20
2023-05-12T22:26:04.966Z,21.40
2023-05-12T22:29:03.500Z,21.50
2023-05-12T22:31:44.006Z,21.70
2023-05-12T22:34:25.140Z,22.50
2023-05-12T22:37:22.797Z,22.80
2023-05-12T22:39:58.054Z,22.80
2023-05-12T22:43:16.513Z,22.70
2023-05-12T22:46:25.499Z,23.50
2023-05-12T22:49:49.220Z,25.30
2023-05-12T22:53:00.204Z,25.90
2023-05-12T22:55:55.803Z,26.00
2023-05-12T22:58:43.666Z,25.60
2023-05-12T23:01:55.308Z,25.30
2023-05-12T23:04:59.486Z,25.80
2023-05-12T23:08:20.130Z,28.30
2023-05-12T23:12:00.225Z,30.50
2023-05-12T23:14:49.618Z,32.70
2023-05-12T23:17:55.004Z,33.90
2023-05-12T23:20:48.724Z,35.00
2023-05-12T23:24:09.664Z,35.00
2023-05-12T23:27:00.829Z,35.30
2023-05-12T23:29:53.484Z,37.20
2023-05-12T23:32:41.547Z,35.20
2023-05-12T23:35:45.865Z,34.00
2023-05-12T23:38:52.355Z,33.50
2023-05-12T23:41:26.791Z,33.40
2023-05-12T23:44:09.352Z,33.40
2023-05-12T23:47:01.731Z,33.80
2023-05-12T23:49:58.225Z,33.60
2023-05-12T23:53:12.890Z,34.50
2023-05-12T23:56:04.530Z,36.00
2023-05-12T23:58:53.548Z,37.50
